Time;durP1;ratioP1;P1;durP2;ratioP2;P2;SDS_P1;SDS_P2;PMS_P1;PMS_P2;Temp;Humidity;BMP_temperature;BMP_pressure;BME280_temperature;BME280_humidity;BME280_pressure;Samples;Min_cycle;Max_cycle;Signal;HPM_P1;HPM_P2
2021/09/09 00:01:15;;;;;;;;;119.75;119.00;;;;;24.20;71.20;100586.88;6272637;22;44658;-92
2021/09/09 00:03:41;;;;;;;;;119.75;118.25;;;;;24.19;71.64;100577.88;6272800;22;44941;-91
2021/09/09 00:06:06;;;;;;;;;112.25;112.00;;;;;24.25;71.49;100599.91;6297961;22;44978;-92
2021/09/09 00:08:32;;;;;;;;;104.00;103.00;;;;;24.41;71.25;100628.78;6273128;22;44663;-92
2021/09/09 00:10:58;;;;;;;;;108.00;107.50;;;;;24.16;71.77;100589.09;6296439;22;44738;-92
2021/09/09 00:13:23;;;;;;;;;122.00;120.00;;;;;24.06;71.15;100570.34;6269944;22;44825;-92
2021/09/09 00:15:49;;;;;;;;;111.75;111.75;;;;;24.03;71.76;100561.72;6271131;22;47023;-93
2021/09/09 00:18:16;;;;;;;;;111.75;111.75;;;;;24.33;71.43;100616.13;6267707;22;44680;-93
2021/09/09 00:20:41;;;;;;;;;113.20;112.60;;;;;23.93;71.39;100554.69;6269973;22;44754;-93
2021/09/09 00:23:07;;;;;;;;;118.20;118.00;;;;;23.92;71.46;100550.28;6272232;22;44750;-91
2021/09/09 00:25:33;;;;;;;;;114.00;114.00;;;;;23.99;71.34;100566.66;6268356;22;44994;-92
2021/09/09 00:27:58;;;;;;;;;92.00;88.67;;;;;24.04;71.37;100566.97;6269768;22;44642;-92
2021/09/09 00:30:24;;;;;;;;;122.67;121.67;;;;;24.06;71.56;100567.63;6269600;22;44782;-90
2021/09/09 00:32:51;;;;;;;;;106.50;106.50;;;;;23.82;71.65;100525.25;6269285;22;44880;-90
2021/09/09 00:35:16;;;;;;;;;122.20;121.20;;;;;23.95;71.20;100539.06;6271296;22;45313;-91
2021/09/09 00:37:43;;;;;;;;;113.25;113.25;;;;;24.01;72.11;100548.34;6276016;22;44682;-94
2021/09/09 00:40:09;;;;;;;;;106.00;105.50;;;;;24.03;72.22;100559.00;6302056;22;44793;-92
2021/09/09 00:42:35;;;;;;;;;106.00;106.00;;;;;24.15;70.90;100575.75;6273644;22;44993;-94
2021/09/09 00:45:01;;;;;;;;;100.75;100.75;;;;;23.82;70.97;100536.13;6298523;22;44909;-93
2021/09/09 00:47:27;;;;;;;;;115.20;114.80;;;;;23.84;71.92;100545.75;6303333;22;44722;-93
2021/09/09 00:49:54;;;;;;;;;110.20;109.80;;;;;23.64;71.40;100523.72;6305601;22;44770;-91
2021/09/09 00:52:20;;;;;;;;;86.17;82.50;;;;;23.64;71.57;100529.16;6303963;22;44872;-92
2021/09/09 00:54:46;;;;;;;;;116.20;116.20;;;;;23.76;71.21;100559.41;6273377;22;45018;-93
2021/09/09 00:57:12;;;;;;;;;90.17;86.33;;;;;23.71;71.76;100549.09;6267779;22;44640;-93
2021/09/09 00:59:38;;;;;;;;;93.33;90.67;;;;;23.71;71.82;100561.84;6267617;22;44663;-93
2021/09/09 01:02:06;;;;;;;;;84.83;81.00;;;;;23.61;72.13;100543.06;6267662;22;44946;-92
2021/09/09 01:04:31;;;;;;;;;91.00;87.17;;;;;23.72;71.32;100566.25;6268506;22;45253;-92
2021/09/09 01:06:57;;;;;;;;;89.00;86.17;;;;;23.90;71.85;100603.91;6267377;22;44773;-92
2021/09/09 01:09:22;;;;;;;;;120.50;118.00;;;;;23.73;71.40;100577.94;6266177;22;44768;-92
2021/09/09 01:11:49;;;;;;;;;108.25;107.50;;;;;23.56;71.82;100550.94;6267785;22;44789;-92
2021/09/09 01:14:16;;;;;;;;;87.17;83.67;;;;;23.73;72.19;100580.66;6297012;22;45276;-93
2021/09/09 01:16:42;;;;;;;;;87.50;82.67;;;;;23.83;72.09;100601.09;6268004;22;44771;-93
2021/09/09 01:19:10;;;;;;;;;93.00;90.80;;;;;23.61;72.80;100562.06;6273717;22;44873;-91
2021/09/09 01:21:36;;;;;;;;;114.00;114.00;;;;;23.55;71.83;100560.94;6304723;22;44731;-92
2021/09/09 01:24:02;;;;;;;;;86.00;81.67;;;;;23.67;71.82;100574.09;6274266;22;44927;-92
2021/09/09 01:26:29;;;;;;;;;86.00;82.67;;;;;23.76;71.35;100582.97;6296533;22;44737;-91
2021/09/09 01:28:58;;;;;;;;;103.00;102.20;;;;;23.81;71.34;100600.41;6269493;22;44621;-91
2021/09/09 01:31:24;;;;;;;;;91.00;87.60;;;;;23.62;71.17;100571.91;6270259;22;44893;-92
2021/09/09 01:33:57;;;;;;;;;88.50;83.50;;;;;23.49;71.54;100558.97;6275839;22;45352;-93
2021/09/09 01:36:24;;;;;;;;;86.67;81.67;;;;;23.52;71.43;100565.88;6276245;22;44745;-91
2021/09/09 01:38:49;;;;;;;;;84.67;80.67;;;;;23.56;71.15;100591.63;6267114;22;44834;-92
2021/09/09 01:41:15;;;;;;;;;85.00;81.60;;;;;23.54;71.73;100596.38;6266694;22;44754;-92
2021/09/09 01:43:40;;;;;;;;;85.80;80.60;;;;;23.38;71.63;100572.94;6264885;22;45074;-89
2021/09/09 01:46:06;;;;;;;;;91.17;88.83;;;;;23.54;71.67;100604.50;6262780;22;44770;-92
2021/09/09 01:48:31;;;;;;;;;83.60;78.80;;;;;23.54;71.87;100615.38;6267814;22;44700;-90
2021/09/09 01:50:57;;;;;;;;;89.17;85.83;;;;;23.54;71.87;100615.38;6269257;22;44788;-91
2021/09/09 01:53:24;;;;;;;;;100.20;100.20;;;;;23.35;71.96;100584.13;6281096;22;45553;-93
2021/09/09 01:55:51;;;;;;;;;78.83;74.17;;;;;23.62;71.72;100628.91;6309176;22;44713;-95
2021/09/09 01:58:17;;;;;;;;;91.17;89.00;;;;;23.31;71.99;100581.75;6281759;22;44592;-94
2021/09/09 02:00:43;;;;;;;;;87.83;82.00;;;;;23.49;71.56;100610.50;6279402;22;44899;-92
2021/09/09 02:03:09;;;;;;;;;100.40;97.00;;;;;23.44;71.42;100600.19;6305517;22;45058;-93
2021/09/09 02:05:34;;;;;;;;;91.83;89.17;;;;;23.24;72.00;100567.22;6277304;22;44730;-93
2021/09/09 02:08:00;;;;;;;;;113.00;112.00;;;;;23.39;72.51;100590.91;6284127;22;44729;-94
2021/09/09 02:10:25;;;;;;;;;88.50;84.00;;;;;23.35;71.86;100584.13;6287088;22;44843;-94
2021/09/09 02:12:53;;;;;;;;;90.83;87.00;;;;;23.29;72.08;100574.81;6279667;22;45457;-95
2021/09/09 02:15:19;;;;;;;;;92.67;90.33;;;;;23.64;72.42;100623.28;6276642;22;44728;-95
2021/09/09 02:18:01;;;;;;;;;92.00;87.80;;;;;23.40;72.29;100587.16;6280850;22;44728;-96
2021/09/09 02:20:29;;;;;;;;;101.33;99.50;;;;;23.67;72.46;100637.34;6308781;22;44920;-96
2021/09/09 02:22:56;;;;;;;;;98.00;96.60;;;;;23.38;72.14;100586.50;6307485;22;45060;-95
2021/09/09 02:25:24;;;;;;;;;82.17;78.00;;;;;23.50;71.50;100600.47;6308587;22;44771;-95
2021/09/09 02:27:53;;;;;;;;;96.50;94.67;;;;;23.35;71.55;100576.81;6282647;22;44690;-95
2021/09/09 02:30:22;;;;;;;;;95.17;91.67;;;;;23.52;72.42;100602.00;6307107;22;44940;-95
2021/09/09 02:32:58;;;;;;;;;85.33;81.33;;;;;23.39;71.66;100569.19;6338109;22;45249;-96
2021/09/09 02:35:32;;;;;;;;;92.17;86.67;;;;;23.68;72.38;100613.75;6337931;22;44796;-96
2021/09/09 02:37:59;;;;;;;;;96.33;92.83;;;;;23.41;72.61;100561.72;6327393;22;44743;-91
2021/09/09 02:40:25;;;;;;;;;96.67;94.33;;;;;23.42;71.86;100558.81;6265200;22;44834;-92
2021/09/09 02:42:51;;;;;;;;;107.50;106.50;;;;;23.48;71.69;100570.81;6264269;22;45314;-91
2021/09/09 02:45:16;;;;;;;;;90.83;88.67;;;;;23.54;72.81;100594.53;6263877;22;44736;-93
2021/09/09 02:47:42;;;;;;;;;76.40;69.60;;;;;23.44;72.92;100574.91;6268338;22;44790;-93
2021/09/09 02:50:08;;;;;;;;;115.00;114.33;;;;;23.75;72.88;100625.59;6296732;22;44737;-90
2021/09/09 02:52:33;;;;;;;;;103.75;102.50;;;;;23.66;72.12;100599.53;6266546;22;45015;-92
2021/09/09 02:54:59;;;;;;;;;88.00;85.33;;;;;23.79;71.98;100636.91;6267421;22;44755;-94
2021/09/09 02:57:24;;;;;;;;;87.67;83.50;;;;;23.58;72.33;100603.97;6267184;22;44668;-94
2021/09/09 02:59:50;;;;;;;;;91.17;89.17;;;;;23.56;71.33;100591.63;6268228;22;45009;-93
2021/09/09 03:02:16;;;;;;;;;115.00;115.00;;;;;23.57;71.24;100598.72;6275526;22;45314;-93
2021/09/09 03:04:41;;;;;;;;;87.33;82.67;;;;;23.81;71.74;100632.97;6275379;22;44698;-93
2021/09/09 03:07:07;;;;;;;;;99.20;98.20;;;;;23.51;71.36;100572.34;6275278;22;44617;-93
2021/09/09 03:09:34;;;;;;;;;98.50;96.83;;;;;23.39;71.38;100567.31;6272784;22;44828;-93
2021/09/09 03:12:02;;;;;;;;;93.33;90.00;;;;;23.38;71.77;100570.22;6275391;22;45301;-93
2021/09/09 03:14:28;;;;;;;;;114.00;111.75;;;;;23.29;71.81;100569.41;6275319;22;44549;-92
2021/09/09 03:16:54;;;;;;;;;88.33;83.17;;;;;23.37;71.39;100587.50;6275287;22;44647;-93
2021/09/09 03:19:26;;;;;;;;;77.40;70.60;;;;;23.37;72.18;100588.38;6299131;22;44826;-92
2021/09/09 03:21:52;;;;;;;;;96.00;94.33;;;;;23.25;72.16;100565.38;6308199;22;45268;-92
2021/09/09 03:24:18;;;;;;;;;86.50;83.33;;;;;23.22;71.62;100573.84;6283008;22;44789;-93
2021/09/09 03:26:43;;;;;;;;;93.83;91.50;;;;;23.31;71.82;100589.91;6284901;22;44660;-93
2021/09/09 03:29:11;;;;;;;;;96.83;91.83;;;;;23.31;71.92;100589.03;6282361;22;44858;-93
2021/09/09 03:31:37;;;;;;;;;91.67;88.83;;;;;23.33;72.39;100595.16;6278534;22;45095;-93
2021/09/09 03:34:03;;;;;;;;;56.75;48.75;;;;;23.23;72.18;100581.81;6276918;22;44613;-93
2021/09/09 03:36:31;;;;;;;;;104.33;101.50;;;;;23.30;72.18;100593.63;6277113;22;44802;-93
2021/09/09 03:38:57;;;;;;;;;96.67;92.83;;;;;23.04;72.45;100558.69;6300360;22;44821;-93
2021/09/09 03:41:24;;;;;;;;;61.20;51.80;;;;;23.16;71.91;100568.09;6298837;22;45419;-93
2021/09/09 03:43:51;;;;;;;;;87.60;80.80;;;;;23.04;72.12;100548.72;6274952;22;44790;-94
2021/09/09 03:46:16;;;;;;;;;90.80;85.60;;;;;23.15;72.17;100569.13;6270616;22;44689;-93
2021/09/09 03:48:42;;;;;;;;;87.50;84.33;;;;;23.32;72.82;100613.28;6271971;22;44911;-92
2021/09/09 03:51:08;;;;;;;;;48.40;41.40;;;;;23.16;72.87;100575.41;6279108;22;44998;-92
2021/09/09 03:53:33;;;;;;;;;64.20;54.60;;;;;23.37;72.87;100601.94;6281536;22;44833;-95
2021/09/09 03:56:01;;;;;;;;;62.25;55.00;;;;;23.07;72.65;100556.47;6281325;22;44679;-93
2021/09/09 03:58:30;;;;;;;;;54.25;46.25;;;;;23.09;72.32;100559.00;6308408;22;44824;-94
2021/09/09 04:00:56;;;;;;;;;57.80;49.00;;;;;22.98;72.79;100546.69;6327456;22;45037;-93
2021/09/09 04:03:23;;;;;;;;;56.40;47.00;;;;;23.08;72.98;100565.44;6278874;22;44917;-93
2021/09/09 04:05:49;;;;;;;;;64.20;55.80;;;;;22.98;72.50;100553.97;6277920;22;44765;-94
2021/09/09 04:08:15;;;;;;;;;60.25;53.25;;;;;23.00;72.65;100555.47;6274678;22;44875;-94
2021/09/09 04:10:43;;;;;;;;;56.40;47.80;;;;;23.15;72.53;100576.41;6270243;22;44994;-93
2021/09/09 04:13:09;;;;;;;;;65.00;58.25;;;;;23.29;72.90;100596.53;6298306;22;44765;-93
2021/09/09 04:15:35;;;;;;;;;62.25;56.00;;;;;23.30;72.72;100606.34;6299433;22;44715;-93
2021/09/09 04:18:11;;;;;;;;;61.50;54.50;;;;;23.32;72.26;100598.88;6275062;22;44829;-93
2021/09/09 04:20:36;;;;;;;;;63.60;55.40;;;;;23.10;72.57;100562.56;6297511;22;45201;-91
2021/09/09 04:23:02;;;;;;;;;52.75;46.00;;;;;23.15;72.97;100579.13;6266471;22;44714;-91
2021/09/09 04:25:31;;;;;;;;;62.80;54.60;;;;;22.87;72.65;100541.69;6275634;22;44830;-92
2021/09/09 04:27:57;;;;;;;;;65.75;59.50;;;;;23.01;72.52;100570.75;6302986;22;44824;-92
2021/09/09 04:30:24;;;;;;;;;60.40;51.00;;;;;22.84;72.72;100534.72;6278457;22;45012;-93
2021/09/09 04:32:52;;;;;;;;;52.80;45.40;;;;;22.96;72.18;100564.16;6301049;22;44795;-94
2021/09/09 04:35:19;;;;;;;;;55.80;46.40;;;;;22.81;72.48;100535.94;6298257;22;44763;-93
2021/09/09 04:37:45;;;;;;;;;63.75;55.25;;;;;22.87;72.25;100531.66;6272781;22;44798;-92
2021/09/09 04:40:11;;;;;;;;;59.40;51.00;;;;;22.80;72.51;100533.41;6275857;22;45097;-95
2021/09/09 04:42:43;;;;;;;;;63.00;55.40;;;;;22.94;72.58;100551.63;6277891;22;44830;-95
2021/09/09 04:45:09;;;;;;;;;58.40;49.40;;;;;22.91;72.38;100548.44;6334289;22;44765;-93
2021/09/09 04:47:36;;;;;;;;;54.50;47.00;;;;;22.78;73.03;100520.00;6281941;22;44809;-94
2021/09/09 04:52:38;;;;;;;;;66.20;58.40;;;;;23.15;72.20;100579.13;6266543;22;45576;-93
2021/09/09 04:55:05;;;;;;;;;51.75;44.75;;;;;22.74;72.00;100520.56;6335652;22;44720;-94
2021/09/09 04:57:32;;;;;;;;;61.60;53.80;;;;;22.76;71.92;100535.63;6283499;22;44797;-94
2021/09/09 05:00:02;;;;;;;;;;;;;;;23.06;72.13;100579.19;6286591;22;45170;-94
2021/09/09 05:02:28;;;;;;;;;43.25;37.75;;;;;22.79;72.06;100539.84;6339507;22;44791;-93
2021/09/09 05:04:56;;;;;;;;;47.00;39.40;;;;;22.79;72.36;100534.44;6312821;22;44718;-96
2021/09/09 05:07:22;;;;;;;;;62.00;55.25;;;;;22.84;72.15;100544.75;6274397;22;44833;-95
2021/09/09 05:09:59;;;;;;;;;53.40;45.00;;;;;22.90;72.00;100555.72;6244495;22;45616;-96
2021/09/09 05:12:25;;;;;;;;;62.40;53.60;;;;;22.90;72.00;100555.72;6239604;22;44809;-92
2021/09/09 05:14:50;;;;;;;;;66.25;58.00;;;;;23.01;72.25;100572.59;6210933;22;44669;-92
2021/09/09 05:17:16;;;;;;;;;50.75;42.25;;;;;23.06;72.14;100575.63;6215517;22;44877;-92
2021/09/09 05:19:41;;;;;;;;;64.20;55.40;;;;;22.89;72.11;100555.88;6214558;22;45117;-91
2021/09/09 05:22:07;;;;;;;;;68.80;61.60;;;;;22.88;71.69;100557.78;6213874;22;44778;-92
2021/09/09 05:24:34;;;;;;;;;52.00;42.60;;;;;22.90;71.82;100563.00;6242311;22;44733;-93
2021/09/09 05:27:01;;;;;;;;;66.00;59.25;;;;;22.90;71.80;100555.72;6268055;22;44895;-93
2021/09/09 05:29:26;;;;;;;;;60.25;52.00;;;;;23.11;71.48;100586.78;6209357;22;45466;-92
2021/09/09 05:31:52;;;;;;;;;65.00;56.80;;;;;22.85;71.99;100541.84;6218146;22;44776;-92
2021/09/09 05:34:31;;;;;;;;;61.60;53.20;;;;;22.94;72.01;100562.47;6216192;22;44821;-94
2021/09/09 05:36:58;;;;;;;;;62.50;55.25;;;;;22.98;71.19;100568.38;6244251;22;44841;-94
2021/09/09 05:39:26;;;;;;;;;62.25;55.50;;;;;22.96;72.46;100569.59;6305622;22;45072;-96
2021/09/09 05:41:53;;;;;;;;;61.50;54.25;;;;;22.91;71.41;100562.81;6285183;22;44704;-94
2021/09/09 05:44:19;;;;;;;;;62.20;54.60;;;;;22.98;71.43;100572.94;6283532;22;44718;-95
2021/09/09 05:46:47;;;;;;;;;66.00;58.25;;;;;22.85;71.19;100554.56;6335957;22;44800;-94
2021/09/09 05:49:15;;;;;;;;;70.00;59.80;;;;;22.87;71.47;100560.66;6336941;22;45702;-93
2021/09/09 05:51:41;;;;;;;;;67.20;60.20;;;;;23.04;71.76;100592.09;6312293;22;44693;-93
2021/09/09 05:54:12;;;;;;;;;66.60;58.40;;;;;22.93;71.94;100573.47;6284839;22;44746;-94
2021/09/09 05:56:40;;;;;;;;;57.20;48.00;;;;;22.86;71.03;100565.22;6311935;22;44873;-94
2021/09/09 05:59:12;;;;;;;;;67.20;59.60;;;;;23.10;71.14;100603.22;6312076;22;45128;-93
2021/09/09 06:01:38;;;;;;;;;66.00;58.75;;;;;23.28;71.24;100638.22;6310664;22;44846;-93
2021/09/09 06:04:08;;;;;;;;;66.40;55.40;;;;;23.05;70.69;100607.31;6309849;22;44705;-94
2021/09/09 06:06:35;;;;;;;;;64.00;56.25;;;;;23.03;70.37;100603.09;6288218;22;44879;-95
2021/09/09 06:09:06;;;;;;;;;61.20;53.00;;;;;22.92;70.46;100588.06;6313582;22;45037;-93
2021/09/09 06:11:35;;;;;;;;;64.00;54.00;;;;;23.19;70.35;100646.41;6286521;22;44863;-94
2021/09/09 06:14:03;;;;;;;;;61.00;51.75;;;;;22.81;70.54;100594.72;6334509;22;44710;-92
2021/09/09 06:16:31;;;;;;;;;64.20;53.60;;;;;23.18;70.37;100657.41;6281334;22;44966;-94
2021/09/09 06:18:59;;;;;;;;;59.00;50.75;;;;;22.79;70.74;100589.47;6285648;22;44947;-95
2021/09/09 06:26:42;;;;;;;;;59.50;49.50;;;;;22.76;70.97;100587.13;6333043;22;45889;-89
2021/09/09 06:29:08;;;;;;;;;68.60;60.00;;;;;23.01;71.54;100621.41;6286160;22;46818;-89
2021/09/09 06:31:38;;;;;;;;;63.20;53.20;;;;;22.88;70.97;100600.28;6260474;22;44757;-90
2021/09/09 06:34:10;;;;;;;;;64.80;56.40;;;;;23.14;70.46;100645.22;6266292;22;44743;-92
2021/09/09 06:36:43;;;;;;;;;67.60;59.40;;;;;23.07;70.23;100626.13;6294374;22;44885;-91
2021/09/09 06:39:19;;;;;;;;;71.40;61.60;;;;;23.00;70.54;100601.56;6262038;22;45295;-91
2021/09/09 06:41:55;;;;;;;;;51.75;45.00;;;;;23.41;70.51;100660.22;6263099;22;44927;-89
2021/09/09 06:44:28;;;;;;;;;72.20;64.20;;;;;23.45;69.91;100661.53;6287955;22;44756;-90
2021/09/09 06:47:02;;;;;;;;;66.80;59.00;;;;;23.50;70.71;100676.44;6291322;22;44782;-89
2021/09/09 06:49:33;;;;;;;;;70.40;61.80;;;;;23.30;70.16;100636.19;6278467;22;45465;-91
2021/09/09 06:52:01;;;;;;;;;76.83;68.67;;;;;23.52;69.55;100675.25;6302079;22;44655;-91
2021/09/09 06:54:26;;;;;;;;;72.20;62.60;;;;;23.23;69.70;100636.06;6290637;22;44740;-88
2021/09/09 06:56:52;;;;;;;;;74.00;65.20;;;;;23.12;69.33;100637.28;6262238;22;44823;-89
2021/09/09 06:59:17;;;;;;;;;68.75;61.25;;;;;22.91;70.34;100608.06;6258918;22;45266;-88
2021/09/09 07:01:49;;;;;;;;;60.40;52.40;;;;;23.15;70.09;100642.34;6263003;22;44876;-90
2021/09/09 07:04:15;;;;;;;;;83.17;79.33;;;;;23.22;70.07;100647.91;6262917;22;44632;-88
2021/09/09 07:06:41;;;;;;;;;86.00;82.00;;;;;23.11;70.22;100627.47;6341970;22;44653;-89
2021/09/09 07:09:10;;;;;;;;;88.67;84.67;;;;;23.08;69.85;100622.38;6260286;22;45062;-87
2021/09/09 07:11:39;;;;;;;;;79.75;72.25;;;;;23.44;71.02;100669.88;6287443;22;44741;-87
2021/09/09 07:14:04;;;;;;;;;89.00;85.83;;;;;23.16;70.17;100619.63;6268004;22;44650;-87
2021/09/09 07:16:30;;;;;;;;;79.75;73.75;;;;;23.40;69.86;100658.53;6270514;22;44913;-87
2021/09/09 07:18:55;;;;;;;;;93.60;89.80;;;;;23.25;69.45;100623.16;6283767;22;44930;-87
2021/09/09 07:21:21;;;;;;;;;80.40;76.20;;;;;23.31;69.54;100637.84;6285625;22;44673;-89
2021/09/09 07:23:47;;;;;;;;;87.20;83.80;;;;;23.60;70.21;100676.25;6261914;22;44704;-88
2021/09/09 07:26:14;;;;;;;;;87.50;82.50;;;;;23.44;70.21;100640.88;6289738;22;44826;-87
2021/09/09 07:28:40;;;;;;;;;;;;;;;23.73;69.20;100687.34;6291538;22;45308;-88
2021/09/09 07:31:05;;;;;;;;;80.60;75.60;;;;;23.77;69.59;100690.56;6339730;22;44786;-88
2021/09/09 07:33:31;;;;;;;;;88.00;85.00;;;;;23.78;68.91;100684.94;6286525;22;44694;-89
2021/09/09 07:35:56;;;;;;;;;95.00;94.00;;;;;23.46;69.16;100635.28;6259369;22;44764;-88
2021/09/09 07:38:22;;;;;;;;;79.60;74.20;;;;;23.44;68.68;100631.88;6284250;22;45201;-89
2021/09/09 07:40:47;;;;;;;;;92.67;91.67;;;;;23.64;68.60;100666.72;6285798;22;44751;-90
2021/09/09 07:43:13;;;;;;;;;96.25;96.00;;;;;23.57;68.38;100656.56;6290115;22;44654;-89
2021/09/09 07:45:38;;;;;;;;;101.75;97.50;;;;;23.77;68.88;100687.84;6262270;22;44872;-89
2021/09/09 07:48:04;;;;;;;;;100.50;99.00;;;;;23.67;68.81;100672.63;6260207;22;46600;-90
2021/09/09 07:50:30;;;;;;;;;80.25;75.50;;;;;23.45;68.79;100623.56;6258781;22;44674;-90
2021/09/09 07:52:56;;;;;;;;;97.00;94.67;;;;;23.64;68.53;100653.16;6260548;22;44578;-88
2021/09/09 07:55:22;;;;;;;;;83.00;78.00;;;;;23.68;68.27;100652.59;6287148;22;44958;-88
2021/09/09 07:57:47;;;;;;;;;92.75;92.25;;;;;23.95;67.96;100693.81;6313830;22;45032;-89
2021/09/09 08:00:13;;;;;;;;;103.25;102.00;;;;;23.98;67.98;100705.31;6287373;22;44762;-89
2021/09/09 08:02:39;;;;;;;;;79.67;73.17;;;;;23.63;68.06;100633.28;6284640;22;44723;-89
2021/09/09 08:05:05;;;;;;;;;92.00;92.00;;;;;23.93;67.98;100659.72;6258489;22;44789;-88
2021/09/09 08:07:30;;;;;;;;;95.80;93.60;;;;;24.23;67.70;100688.88;6258121;22;45942;-89
2021/09/09 08:09:56;;;;;;;;;88.25;86.75;;;;;24.06;67.21;100657.22;6286567;22;45592;-88
2021/09/09 08:12:21;;;;;;;;;92.67;91.33;;;;;24.20;67.45;100668.34;6325859;22;44717;-88
2021/09/09 08:14:46;;;;;;;;;94.33;90.67;;;;;23.93;67.33;100614.41;6287983;22;44838;-88
2021/09/09 08:17:14;;;;;;;;;104.25;102.00;;;;;23.92;66.95;100630.88;6257904;22;45337;-88
2021/09/09 08:19:39;;;;;;;;;83.75;82.50;;;;;24.29;67.16;100699.84;6285356;22;44670;-87
2021/09/09 08:22:05;;;;;;;;;89.25;88.75;;;;;23.91;66.43;100649.06;6284757;22;44664;-89
2021/09/09 08:24:30;;;;;;;;;93.75;91.50;;;;;24.16;66.26;100691.47;6311068;22;44690;-87
2021/09/09 08:26:56;;;;;;;;;99.40;98.40;;;;;23.90;66.34;100660.91;6282812;22;45554;-86
2021/09/09 08:29:21;;;;;;;;;95.75;94.00;;;;;23.97;66.77;100680.06;6284837;22;44695;-87
2021/09/09 08:31:47;;;;;;;;;92.33;91.33;;;;;23.70;66.65;100630.69;6262596;22;44795;-88
2021/09/09 08:34:12;;;;;;;;;102.25;97.50;;;;;24.15;66.25;100701.50;6264721;22;44917;-88
2021/09/09 08:36:37;;;;;;;;;101.25;100.00;;;;;23.87;66.62;100658.59;6316933;22;45419;-89
2021/09/09 08:39:03;;;;;;;;;98.50;96.50;;;;;24.01;65.83;100665.09;6285639;22;44761;-89
2021/09/09 08:41:30;;;;;;;;;95.50;95.50;;;;;24.04;66.56;100648.44;6286884;22;44787;-90
2021/09/09 08:43:55;;;;;;;;;92.50;90.75;;;;;24.35;67.10;100687.44;6260141;22;44957;-89
2021/09/09 08:46:20;;;;;;;;;78.75;76.75;;;;;24.18;65.94;100673.97;6258974;22;45487;-88
2021/09/09 08:48:46;;;;;;;;;88.75;88.50;;;;;24.15;65.87;100687.91;6285784;22;44715;-88
2021/09/09 08:51:12;;;;;;;;;90.33;90.33;;;;;24.11;66.57;100685.69;6313476;22;44721;-89
2021/09/09 08:53:39;;;;;;;;;89.00;88.20;;;;;24.05;66.21;100688.13;6288313;22;44719;-89
2021/09/09 08:56:04;;;;;;;;;93.40;92.40;;;;;24.24;66.95;100729.44;6291073;22;45262;-88
2021/09/09 08:58:30;;;;;;;;;90.00;88.25;;;;;23.75;66.33;100662.72;6289730;22;44707;-88
2021/09/09 09:01:19;;;;;;;;;90.80;89.20;;;;;23.64;66.04;100651.25;6319604;22;44712;-89
2021/09/09 09:03:54;;;;;;;;;108.00;107.00;;;;;24.02;66.69;100723.78;6291889;22;44870;-89
2021/09/09 09:06:25;;;;;;;;;97.60;97.40;;;;;23.98;67.50;100719.75;6318488;22;45261;-88
2021/09/09 09:08:54;;;;;;;;;99.40;98.20;;;;;24.05;67.56;100723.44;6343089;22;45360;-88
2021/09/09 09:11:31;;;;;;;;;91.60;90.20;;;;;23.81;66.66;100684.56;6285809;22;44780;-90
2021/09/09 09:13:57;;;;;;;;;89.20;88.80;;;;;24.11;67.10;100730.00;6264521;22;44874;-89
2021/09/09 09:16:23;;;;;;;;;92.75;92.50;;;;;23.75;66.63;100663.59;6316196;22;44895;-89
2021/09/09 09:18:48;;;;;;;;;102.20;100.60;;;;;23.82;66.58;100671.84;6319404;22;44741;-89
2021/09/09 09:21:15;;;;;;;;;99.00;96.00;;;;;23.92;66.90;100687.88;6265042;22;44646;-88
2021/09/09 09:23:51;;;;;;;;;97.40;94.00;;;;;24.17;66.87;100731.19;6291464;22;44646;-87
2021/09/09 09:26:18;;;;;;;;;110.20;109.80;;;;;23.80;66.66;100672.03;6271605;22;45341;-89
2021/09/09 09:28:47;;;;;;;;;85.50;83.00;;;;;24.12;66.71;100736.31;6280422;22;44805;-89
2021/09/09 09:31:30;;;;;;;;;90.50;87.00;;;;;23.86;66.93;100688.63;6328414;22;44601;-92
2021/09/09 09:33:57;;;;;;;;;103.40;102.40;;;;;24.13;67.39;100730.72;6291526;22;44836;-89
2021/09/09 09:36:29;;;;;;;;;90.80;90.60;;;;;24.19;66.78;100734.59;6320224;22;45240;-88
2021/09/09 09:42:03;;;;;;;;;101.20;99.00;;;;;24.03;67.18;100678.50;6307081;22;44791;-86
2021/09/09 09:44:36;;;;;;;;;97.40;95.40;;;;;24.11;67.17;100669.41;6253712;22;44875;-87
2021/09/09 09:47:12;;;;;;;;;86.25;85.75;;;;;24.23;66.60;100669.84;6226905;22;46481;-85
2021/09/09 09:49:40;;;;;;;;;90.40;90.00;;;;;24.66;66.85;100715.47;6229936;22;44564;-86
2021/09/09 09:52:06;;;;;;;;;80.25;78.50;;;;;25.01;65.96;100737.59;6257667;22;44832;-87
2021/09/09 09:54:33;;;;;;;;;83.00;82.50;;;;;25.20;65.32;100729.91;6288473;22;44947;-89
2021/09/09 09:56:59;;;;;;;;;85.67;85.00;;;;;25.02;65.43;100681.34;6231036;22;45225;-88
2021/09/09 09:59:25;;;;;;;;;85.40;85.20;;;;;25.22;64.50;100714.25;6227883;22;44822;-88
2021/09/09 10:01:50;;;;;;;;;80.00;76.25;;;;;25.28;64.69;100691.69;6227256;22;44709;-86
2021/09/09 10:04:17;;;;;;;;;85.25;85.25;;;;;25.52;63.99;100706.03;6279573;22;44813;-87
2021/09/09 10:06:44;;;;;;;;;79.00;75.75;;;;;25.70;65.19;100713.78;6265937;22;45502;-87
2021/09/09 10:09:10;;;;;;;;;87.50;85.25;;;;;25.74;63.35;100685.16;6257891;22;44737;-88
2021/09/09 10:11:35;;;;;;;;;80.25;78.25;;;;;26.14;62.87;100713.00;6229885;22;44868;-86
2021/09/09 10:14:02;;;;;;;;;79.25;78.00;;;;;25.94;63.01;100667.31;6234341;22;44818;-88
2021/09/09 10:16:29;;;;;;;;;77.20;72.80;;;;;26.32;60.64;100739.78;6231731;22;45409;-88
2021/09/09 10:18:57;;;;;;;;;86.00;84.60;;;;;26.16;61.94;100722.66;6261733;22;44690;-91
2021/09/09 10:21:47;;;;;;;;;73.40;67.80;;;;;26.13;62.28;100714.88;6231220;22;45183;-85
2021/09/09 10:24:27;;;;;;;;;88.00;87.80;;;;;26.05;62.08;100691.31;6256269;22;44836;-86
2021/09/09 10:27:13;;;;;;;;;90.80;87.20;;;;;26.08;62.25;100669.13;6259400;22;45318;-87
2021/09/09 10:29:41;;;;;;;;;87.00;85.50;;;;;26.51;62.35;100724.66;6255706;22;44664;-88
2021/09/09 10:32:07;;;;;;;;;89.40;88.60;;;;;26.53;61.19;100730.75;6253357;22;44681;-87
2021/09/09 10:34:33;;;;;;;;;87.00;86.00;;;;;26.62;61.64;100707.75;6226912;22;44793;-88
2021/09/09 10:36:58;;;;;;;;;87.00;85.75;;;;;26.93;60.66;100727.47;6236224;22;45137;-90
2021/09/09 10:39:40;;;;;;;;;83.75;83.00;;;;;27.08;59.96;100730.09;6239594;22;44647;-91
2021/09/09 10:42:45;;;;;;;;;81.60;81.40;;;;;27.06;59.96;100729.47;6285581;22;44718;-95
2021/09/09 10:45:36;;;;;;;;;95.20;93.40;;;;;27.05;59.23;100711.41;6206359;22;45785;-91
2021/09/09 10:48:03;;;;;;;;;95.20;94.40;;;;;27.04;59.27;100676.97;6276131;22;45213;-95
2021/09/09 10:50:28;;;;;;;;;79.20;79.00;;;;;27.11;58.77;100696.94;6301065;22;44639;-95
2021/09/09 10:52:58;;;;;;;;;83.20;83.20;;;;;27.23;59.18;100696.38;6243615;22;44749;-94
2021/09/09 11:03:31;;;;;;;;;98.60;98.20;;;;;27.29;58.15;100727.47;6318695;22;45666;-94
2021/09/09 11:09:11;;;;;;;;;93.00;92.80;;;;;27.27;57.65;100703.09;6271053;22;45743;-95
2021/09/09 11:11:55;;;;;;;;;85.20;83.60;;;;;27.26;57.59;100698.69;6327912;22;44731;-93
2021/09/09 11:14:24;;;;;;;;;86.00;84.80;;;;;27.30;58.90;100685.50;6279792;22;44650;-90
2021/09/09 11:16:53;;;;;;;;;86.50;86.50;;;;;27.33;53.94;100709.66;6317965;22;45369;-94
2021/09/09 11:19:20;;;;;;;;;86.50;86.50;;;;;27.06;55.44;100674.91;6267028;22;45384;-90
2021/09/09 11:21:46;;;;;;;;;92.40;92.40;;;;;27.09;55.88;100682.69;6293058;22;44965;-91
2021/09/09 11:24:17;;;;;;;;;91.20;91.20;;;;;27.24;53.92;100701.63;6288871;22;44830;-95
2021/09/09 11:30:06;;;;;;;;;95.20;95.20;;;;;27.45;55.58;100697.09;6303961;22;46438;-93
2021/09/09 11:32:33;;;;;;;;;101.00;100.67;;;;;27.56;54.35;100698.38;6283666;22;46060;-92
2021/09/09 11:35:08;;;;;;;;;99.67;99.17;;;;;27.33;54.14;100660.53;6289348;22;44781;-90